createdAt,value
2022-12-03T00:00:17.321Z,28.47
2022-12-03T00:02:45.683Z,24.10
2022-12-03T00:05:14.006Z,22.50
2022-12-03T00:07:42.401Z,29.73
2022-12-03T00:10:11.723Z,27.07
2022-12-03T00:12:40.352Z,23.10
2022-12-03T00:15:12.158Z,25.97
2022-12-03T00:17:40.507Z,28.47
2022-12-03T00:20:12.765Z,24.90
2022-12-03T00:22:41.146Z,25.90
2022-12-03T00:25:10.868Z,27.40
2022-12-03T00:27:39.168Z,31.87
2022-12-03T00:30:11.476Z,24.50
2022-12-03T00:32:39.818Z,32.33
2022-12-03T00:35:09.036Z,28.93
2022-12-03T00:37:37.358Z,28.57
2022-12-03T00:40:07.735Z,25.87
2022-12-03T00:42:36.038Z,27.93
2022-12-03T00:45:06.081Z,25.30
2022-12-03T00:47:35.928Z,26.67
2022-12-03T00:50:04.384Z,26.77
2022-12-03T00:52:32.686Z,26.60
2022-12-03T00:55:01.494Z,26.63
2022-12-03T00:57:29.960Z,26.53
2022-12-03T00:59:58.365Z,26.90
2022-12-03T01:02:26.674Z,27.67
2022-12-03T01:04:56.632Z,26.80
2022-12-03T01:07:26.613Z,24.67
2022-12-03T01:09:54.908Z,26.87
2022-12-03T01:12:23.216Z,27.00
2022-12-03T01:14:51.821Z,28.77
2022-12-03T01:17:20.395Z,30.20
2022-12-03T01:19:48.801Z,26.67
2022-12-03T01:22:18.414Z,29.57
2022-12-03T01:24:46.656Z,28.47
2022-12-03T01:27:14.931Z,29.00
2022-12-03T01:29:43.281Z,25.57
2022-12-03T01:32:18.217Z,25.07
2022-12-03T01:34:47.886Z,26.47
2022-12-03T01:37:19.145Z,26.77
2022-12-03T01:39:47.756Z,26.63
2022-12-03T01:42:20.066Z,25.60
2022-12-03T01:44:49.148Z,22.63
2022-12-03T01:47:19.403Z,25.27
2022-12-03T01:49:52.157Z,29.07
2022-12-03T01:52:25.297Z,22.37
2022-12-03T01:54:56.943Z,25.97
2022-12-03T01:57:29.515Z,27.73
2022-12-03T01:59:59.592Z,26.43
2022-12-03T02:02:30.989Z,25.43
2022-12-03T02:04:59.945Z,29.23
2022-12-03T02:07:32.458Z,25.67
2022-12-03T02:10:02.993Z,26.73
2022-12-03T02:12:37.579Z,27.60
2022-12-03T02:15:07.651Z,31.57
2022-12-03T02:17:36.140Z,29.87
2022-12-03T02:20:09.941Z,29.70
2022-12-03T02:22:47.902Z,30.30
2022-12-03T02:25:20.796Z,27.80
2022-12-03T02:27:50.202Z,29.60
2022-12-03T02:30:23.017Z,30.97
2022-12-03T02:32:53.208Z,30.30
2022-12-03T02:35:25.798Z,28.80
2022-12-03T02:37:59.397Z,28.07
2022-12-03T02:40:33.176Z,28.90
2022-12-03T02:43:04.225Z,28.97
2022-12-03T02:45:36.050Z,28.70
2022-12-03T02:48:11.537Z,27.97
2022-12-03T02:50:44.067Z,28.47
2022-12-03T02:53:19.249Z,33.17
2022-12-03T02:55:49.794Z,30.60
2022-12-03T02:58:18.785Z,34.10
2022-12-03T03:00:49.370Z,29.03
2022-12-03T03:06:12.729Z,31.90
2022-12-03T03:08:43.043Z,27.60
2022-12-03T03:11:13.252Z,33.30
2022-12-03T03:13:41.866Z,33.23
2022-12-03T03:16:10.725Z,32.93
2022-12-03T03:18:40.171Z,33.80
2022-12-03T03:21:09.008Z,36.17
2022-12-03T03:23:37.302Z,35.37
2022-12-03T03:26:11.438Z,32.93
2022-12-03T03:28:44.389Z,35.03
2022-12-03T03:31:15.995Z,35.47
2022-12-03T03:33:46.835Z,34.90
2022-12-03T03:36:16.587Z,36.93
2022-12-03T03:38:45.472Z,38.43
2022-12-03T03:41:14.812Z,37.70
2022-12-03T03:43:45.398Z,36.17
2022-12-03T03:46:14.153Z,34.27
2022-12-03T03:48:57.578Z,34.53
2022-12-03T03:51:26.262Z,35.20
2022-12-03T03:53:54.698Z,37.23
2022-12-03T03:56:23.573Z,33.57
2022-12-03T03:58:53.206Z,36.00
2022-12-03T04:01:22.026Z,37.77
2022-12-03T04:03:50.439Z,35.03
2022-12-03T04:06:18.815Z,39.97
2022-12-03T04:08:47.670Z,39.73
2022-12-03T04:11:33.485Z,35.67
2022-12-03T04:14:03.198Z,38.27
2022-12-03T04:16:31.587Z,36.67
2022-12-03T04:18:59.950Z,38.17
2022-12-03T04:21:45.858Z,39.40
2022-12-03T04:24:14.246Z,40.27
2022-12-03T04:27:00.260Z,40.50
2022-12-03T04:29:29.904Z,41.50
2022-12-03T04:32:16.685Z,42.27
2022-12-03T04:35:02.692Z,42.07
2022-12-03T04:37:31.004Z,39.03
2022-12-03T04:39:59.273Z,40.93
2022-12-03T04:42:27.545Z,38.97
2022-12-03T04:44:58.383Z,41.00
2022-12-03T04:47:26.671Z,42.90
2022-12-03T04:49:54.976Z,40.37
2022-12-03T04:52:23.232Z,39.00
2022-12-03T04:54:51.733Z,41.07
2022-12-03T04:57:20.228Z,44.30
2022-12-03T04:59:48.469Z,43.33
2022-12-03T05:02:18.392Z,44.03
2022-12-03T05:04:47.651Z,47.03
2022-12-03T05:07:24.643Z,48.00
2022-12-03T05:10:09.466Z,45.60
2022-12-03T05:12:37.831Z,45.90
2022-12-03T05:15:08.082Z,47.80
2022-12-03T05:17:37.802Z,45.03
2022-12-03T05:20:25.266Z,45.77
2022-12-03T05:22:53.552Z,47.20
2022-12-03T05:25:21.838Z,45.87
2022-12-03T05:27:50.151Z,42.20
2022-12-03T05:30:18.935Z,42.23
2022-12-03T05:32:48.554Z,43.67
2022-12-03T05:35:17.026Z,43.10
2022-12-03T05:37:45.301Z,40.87
2022-12-03T05:40:14.978Z,43.13
2022-12-03T05:42:54.422Z,41.30
2022-12-03T05:45:23.423Z,43.07
2022-12-03T05:47:53.716Z,40.90
2022-12-03T05:50:23.500Z,40.90
2022-12-03T05:52:52.488Z,36.93
2022-12-03T05:55:21.191Z,40.40
2022-12-03T05:57:49.611Z,38.03
2022-12-03T06:00:21.494Z,42.07
2022-12-03T06:02:49.900Z,42.83
2022-12-03T06:05:20.999Z,37.40
2022-12-03T06:07:51.081Z,42.90
2022-12-03T06:10:21.969Z,39.57
2022-12-03T06:12:50.536Z,39.37
2022-12-03T06:15:19.310Z,35.33
2022-12-03T06:17:47.908Z,37.33
2022-12-03T06:20:20.060Z,39.20
2022-12-03T06:22:48.822Z,35.73
2022-12-03T06:25:17.627Z,36.43
2022-12-03T06:27:46.078Z,39.47
2022-12-03T06:30:15.736Z,40.47
2022-12-03T06:32:43.954Z,34.00
2022-12-03T06:35:12.655Z,34.53
2022-12-03T06:37:42.275Z,34.03
2022-12-03T06:40:13.392Z,34.00
2022-12-03T06:42:42.094Z,35.57
2022-12-03T06:45:11.472Z,34.30
2022-12-03T06:47:39.729Z,36.90
2022-12-03T06:50:09.601Z,33.00
2022-12-03T06:52:37.915Z,34.10
2022-12-03T06:55:09.236Z,32.97
2022-12-03T06:57:37.491Z,34.73
2022-12-03T07:00:09.465Z,36.93
2022-12-03T07:02:37.770Z,32.37
2022-12-03T07:05:07.633Z,31.73
2022-12-03T07:07:41.349Z,25.37
2022-12-03T07:10:12.366Z,25.60
2022-12-03T07:12:40.628Z,25.03
2022-12-03T07:15:10.128Z,27.07
2022-12-03T07:17:38.419Z,25.57
2022-12-03T07:20:09.005Z,21.97
2022-12-03T07:22:37.329Z,23.97
2022-12-03T07:25:07.278Z,24.03
2022-12-03T07:27:36.948Z,22.80
2022-12-03T07:30:06.894Z,23.53
2022-12-03T07:32:35.103Z,25.07
2022-12-03T07:35:07.203Z,26.47
2022-12-03T07:37:35.529Z,23.63
2022-12-03T07:40:04.945Z,25.37
2022-12-03T07:42:33.325Z,31.07
2022-12-03T07:45:03.521Z,25.83
2022-12-03T07:47:31.856Z,22.23
2022-12-03T07:50:00.144Z,25.73
2022-12-03T07:52:28.361Z,23.80
2022-12-03T07:54:56.709Z,22.83
2022-12-03T07:57:25.089Z,26.70
2022-12-03T07:59:53.368Z,22.60
2022-12-03T08:02:23.040Z,23.43
2022-12-03T08:04:56.934Z,22.93
2022-12-03T08:07:25.793Z,25.47
2022-12-03T08:09:54.272Z,23.57
2022-12-03T08:12:40.071Z,21.50
2022-12-03T08:15:14.956Z,24.30
2022-12-03T08:17:46.273Z,22.60
2022-12-03T08:20:18.473Z,22.60
2022-12-03T08:22:49.500Z,23.80
2022-12-03T08:25:23.523Z,24.60
2022-12-03T08:27:54.699Z,18.70
2022-12-03T08:30:23.204Z,20.70
2022-12-03T08:32:52.999Z,23.70
2022-12-03T08:35:25.266Z,25.27
2022-12-03T08:38:00.865Z,26.17
2022-12-03T08:40:35.745Z,27.93
2022-12-03T08:43:14.910Z,29.03
2022-12-03T08:45:44.151Z,29.33
2022-12-03T08:48:37.806Z,30.27
2022-12-03T08:51:14.681Z,25.70
2022-12-03T08:53:47.080Z,26.20
2022-12-03T08:56:23.435Z,22.60
2022-12-03T08:58:55.459Z,27.90
2022-12-03T09:01:42.937Z,22.80
2022-12-03T09:04:28.662Z,21.17
2022-12-03T09:06:58.232Z,22.47
2022-12-03T09:09:27.681Z,22.37
2022-12-03T09:11:56.047Z,23.23
2022-12-03T09:14:24.561Z,23.50
2022-12-03T09:16:55.840Z,21.50
2022-12-03T09:19:30.833Z,24.50
2022-12-03T09:21:59.649Z,22.80
2022-12-03T09:24:27.937Z,25.90
2022-12-03T09:26:56.143Z,21.90
2022-12-03T09:29:24.437Z,21.90
2022-12-03T09:31:54.268Z,23.93
2022-12-03T09:34:22.628Z,19.93
2022-12-03T09:36:52.343Z,22.37
2022-12-03T09:39:20.588Z,24.57
2022-12-03T09:41:49.058Z,25.00
2022-12-03T09:44:18.366Z,21.77
2022-12-03T09:46:47.891Z,19.97
2022-12-03T09:49:19.774Z,17.87
2022-12-03T09:51:48.371Z,22.57
2022-12-03T09:54:24.854Z,20.53
2022-12-03T09:56:54.243Z,23.20
2022-12-03T09:59:24.553Z,21.20
2022-12-03T10:01:53.888Z,22.73
2022-12-03T10:04:22.694Z,21.57
2022-12-03T10:06:51.232Z,21.70
2022-12-03T10:09:27.349Z,23.03
2022-12-03T10:11:57.382Z,22.00
2022-12-03T10:14:26.449Z,21.73
2022-12-03T10:16:56.037Z,22.70
2022-12-03T10:19:29.272Z,22.10
2022-12-03T10:21:57.678Z,20.63
2022-12-03T10:24:30.046Z,24.00
2022-12-03T10:27:00.895Z,23.87
2022-12-03T10:29:34.243Z,25.13
2022-12-03T10:32:06.551Z,22.90
2022-12-03T10:34:37.504Z,26.47
2022-12-03T10:37:16.545Z,22.60
2022-12-03T10:39:59.634Z,24.20
2022-12-03T10:42:30.592Z,24.70
2022-12-03T10:45:18.579Z,24.57
2022-12-03T10:48:07.035Z,22.00
2022-12-03T10:50:37.907Z,25.93
2022-12-03T10:53:11.113Z,28.10
2022-12-03T10:55:44.075Z,23.83
2022-12-03T10:58:22.622Z,23.47
2022-12-03T11:00:53.233Z,23.70
2022-12-03T11:03:24.506Z,25.17
2022-12-03T11:05:54.807Z,27.53
2022-12-03T11:08:25.770Z,23.37
2022-12-03T11:11:01.459Z,23.97
2022-12-03T11:13:51.105Z,28.33
2022-12-03T11:17:07.312Z,26.83
2022-12-03T11:19:50.156Z,29.70
2022-12-03T11:22:40.613Z,30.27
2022-12-03T11:25:50.514Z,28.50
2022-12-03T11:28:54.143Z,28.53
2022-12-03T11:31:39.279Z,26.70
2022-12-03T11:34:50.726Z,28.33
2022-12-03T11:37:29.490Z,26.13
2022-12-03T11:40:27.475Z,26.83
2022-12-03T11:42:55.794Z,24.93
2022-12-03T11:45:35.182Z,28.33
2022-12-03T11:48:14.076Z,26.10
2022-12-03T11:50:44.846Z,29.57
2022-12-03T11:53:21.228Z,30.10
2022-12-03T11:56:06.075Z,28.43
2022-12-03T11:58:36.364Z,32.53
2022-12-03T12:01:08.320Z,30.07
2022-12-03T12:03:43.821Z,29.63
2022-12-03T12:06:14.201Z,31.97
2022-12-03T12:08:56.424Z,30.53
2022-12-03T12:11:30.618Z,32.53
2022-12-03T12:14:00.788Z,28.13
2022-12-03T12:16:50.169Z,27.83
2022-12-03T12:19:41.408Z,27.17
2022-12-03T12:22:32.845Z,24.17
2022-12-03T12:25:02.652Z,26.33
2022-12-03T12:27:37.586Z,22.07
2022-12-03T12:30:09.333Z,22.23
2022-12-03T12:32:47.114Z,24.83
2022-12-03T12:35:19.851Z,23.77
2022-12-03T12:37:59.224Z,22.70
2022-12-03T12:40:30.947Z,25.27
2022-12-03T12:43:08.446Z,20.33
2022-12-03T12:45:43.064Z,25.00
2022-12-03T12:48:24.729Z,25.57
2022-12-03T12:51:00.786Z,22.90
2022-12-03T12:53:31.944Z,23.17
2022-12-03T12:56:02.887Z,23.47
2022-12-03T12:58:33.705Z,21.57
2022-12-03T13:01:07.618Z,23.63
2022-12-03T13:03:41.002Z,21.90
2022-12-03T13:06:35.940Z,20.03
2022-12-03T13:09:04.622Z,21.70
2022-12-03T13:11:41.245Z,19.73
2022-12-03T13:14:17.902Z,24.03
2022-12-03T13:16:47.476Z,21.20
2022-12-03T13:19:24.596Z,20.13
2022-12-03T13:21:54.206Z,23.20
2022-12-03T13:24:33.087Z,21.93
2022-12-03T13:27:06.533Z,19.77
2022-12-03T13:29:34.961Z,19.00
2022-12-03T13:32:11.254Z,24.87
2022-12-03T13:34:41.951Z,19.00
2022-12-03T13:37:17.838Z,20.03
2022-12-03T13:39:49.283Z,20.20
2022-12-03T13:42:42.286Z,20.47
2022-12-03T13:45:33.345Z,20.77
2022-12-03T13:48:05.031Z,19.33
2022-12-03T13:50:38.033Z,21.23
2022-12-03T13:53:17.211Z,21.63
2022-12-03T13:55:47.674Z,22.90
2022-12-03T13:58:16.058Z,22.03
2022-12-03T14:00:45.094Z,20.63
2022-12-03T14:03:13.391Z,19.57
2022-12-03T14:05:43.246Z,22.03
2022-12-03T14:08:11.562Z,24.30
2022-12-03T14:10:40.080Z,20.27
2022-12-03T14:13:08.575Z,23.83
2022-12-03T14:15:38.059Z,22.40
2022-12-03T14:18:06.607Z,25.60
2022-12-03T14:20:36.460Z,37.13
2022-12-03T14:23:06.077Z,26.33
2022-12-03T14:25:34.468Z,29.90
2022-12-03T14:28:02.823Z,25.50
2022-12-03T14:30:31.456Z,25.10
2022-12-03T14:32:59.675Z,39.40
2022-12-03T14:35:28.088Z,36.77
2022-12-03T14:37:56.341Z,37.33
2022-12-03T14:40:26.288Z,26.53
2022-12-03T14:42:54.522Z,31.10
2022-12-03T14:45:24.227Z,21.87
2022-12-03T14:47:52.608Z,24.20
2022-12-03T14:50:20.907Z,24.00
2022-12-03T14:52:49.115Z,32.43
2022-12-03T14:55:17.564Z,39.67
2022-12-03T14:57:47.173Z,20.97
2022-12-03T15:00:16.824Z,22.17
2022-12-03T15:02:47.486Z,22.30
2022-12-03T15:05:15.904Z,21.47
2022-12-03T15:07:44.148Z,20.77
2022-12-03T15:10:12.926Z,23.10
2022-12-03T15:12:41.127Z,23.30
2022-12-03T15:15:12.141Z,26.93
2022-12-03T15:17:40.350Z,26.27
2022-12-03T15:20:10.256Z,46.73
2022-12-03T15:22:38.425Z,25.17
2022-12-03T15:25:07.886Z,43.17
2022-12-03T15:27:36.154Z,65.23
2022-12-03T15:30:05.085Z,26.90
2022-12-03T15:32:34.676Z,24.43
2022-12-03T15:35:02.985Z,25.60
2022-12-03T15:37:31.216Z,24.13
2022-12-03T15:39:59.665Z,24.63
2022-12-03T15:42:29.698Z,26.13
2022-12-03T15:44:57.969Z,23.37
2022-12-03T15:47:26.674Z,29.47
2022-12-03T15:49:56.629Z,31.47
2022-12-03T15:52:25.120Z,31.83
2022-12-03T15:54:53.619Z,29.80
2022-12-03T15:57:23.586Z,35.47
2022-12-03T15:59:52.747Z,53.67
2022-12-03T16:02:21.152Z,165.37
2022-12-03T16:04:49.515Z,142.67
2022-12-03T16:07:19.146Z,67.53
2022-12-03T16:09:47.401Z,52.33
2022-12-03T16:12:15.617Z,50.67
2022-12-03T16:14:44.340Z,27.70
2022-12-03T16:17:12.591Z,29.63
2022-12-03T16:19:40.810Z,39.30
2022-12-03T16:22:09.038Z,34.07
2022-12-03T16:24:38.774Z,28.50
2022-12-03T16:27:07.240Z,29.30
2022-12-03T16:29:35.701Z,30.83
2022-12-03T16:32:04.008Z,35.17
2022-12-03T16:34:32.288Z,55.70
2022-12-03T16:37:00.674Z,34.97
2022-12-03T16:39:28.987Z,52.07
2022-12-03T16:41:58.544Z,51.27
2022-12-03T16:44:43.698Z,38.13
2022-12-03T16:47:11.938Z,35.23
2022-12-03T16:49:40.229Z,49.27
2022-12-03T16:52:08.440Z,29.63
2022-12-03T16:54:37.710Z,32.57
2022-12-03T16:57:07.473Z,27.53
2022-12-03T16:59:35.788Z,31.17
2022-12-03T17:02:04.153Z,30.87
2022-12-03T17:04:34.279Z,28.57
2022-12-03T17:07:02.695Z,25.17
2022-12-03T17:09:31.200Z,28.53
2022-12-03T17:12:00.613Z,27.20
2022-12-03T17:14:33.380Z,27.33
2022-12-03T17:17:01.898Z,27.23
2022-12-03T17:19:30.260Z,28.80
2022-12-03T17:21:59.691Z,29.00
2022-12-03T17:24:27.921Z,27.87
2022-12-03T17:26:56.264Z,30.50
2022-12-03T17:29:24.537Z,28.40
2022-12-03T17:31:54.202Z,37.27
2022-12-03T17:34:22.553Z,32.97
2022-12-03T17:36:50.888Z,33.37
2022-12-03T17:39:19.269Z,41.23
2022-12-03T17:41:47.503Z,46.67
2022-12-03T17:44:20.733Z,26.90
2022-12-03T17:46:49.507Z,30.10
2022-12-03T17:49:19.155Z,29.00
2022-12-03T17:51:47.412Z,31.73
2022-12-03T17:54:15.724Z,32.63
2022-12-03T17:56:44.407Z,29.43
2022-12-03T17:59:13.182Z,29.10
2022-12-03T18:01:41.581Z,27.67
2022-12-03T18:04:10.670Z,31.10
2022-12-03T18:06:40.478Z,29.93
2022-12-03T18:09:08.755Z,30.20
2022-12-03T18:11:37.285Z,31.63
2022-12-03T18:14:05.578Z,29.83
2022-12-03T18:16:34.208Z,28.20
2022-12-03T18:19:06.276Z,31.10
2022-12-03T18:21:35.556Z,24.50
2022-12-03T18:24:06.537Z,26.47
2022-12-03T18:26:35.633Z,26.37
2022-12-03T18:29:03.958Z,41.23
2022-12-03T18:31:32.233Z,32.83
2022-12-03T18:34:00.501Z,23.53
2022-12-03T18:36:35.270Z,28.83
2022-12-03T18:39:09.185Z,29.37
2022-12-03T18:41:37.367Z,54.53
2022-12-03T18:44:10.742Z,42.27
2022-12-03T18:46:54.496Z,28.60
2022-12-03T18:49:23.114Z,29.60
2022-12-03T18:51:57.326Z,27.83
2022-12-03T18:54:28.805Z,30.57
2022-12-03T18:56:57.088Z,28.67
2022-12-03T18:59:25.332Z,25.83
2022-12-03T19:01:53.683Z,23.93
2022-12-03T19:04:24.554Z,25.73
2022-12-03T19:07:18.247Z,26.80
2022-12-03T19:09:48.258Z,27.80
2022-12-03T19:12:17.884Z,24.93
2022-12-03T19:14:46.517Z,26.30
2022-12-03T19:17:14.720Z,33.93
2022-12-03T19:19:42.973Z,28.07
2022-12-03T19:22:11.229Z,25.23
2022-12-03T19:24:39.490Z,23.97
2022-12-03T19:27:09.170Z,20.43
2022-12-03T19:29:37.463Z,21.47
2022-12-03T19:32:06.219Z,20.47
2022-12-03T19:34:34.536Z,22.43
2022-12-03T19:37:02.806Z,27.00
2022-12-03T19:39:31.814Z,64.17
2022-12-03T19:42:00.307Z,158.73
2022-12-03T19:44:29.864Z,57.67
2022-12-03T19:46:58.095Z,39.83
2022-12-03T19:49:27.194Z,32.13
2022-12-03T19:51:55.471Z,26.70
2022-12-03T19:54:24.400Z,24.37
2022-12-03T19:56:52.623Z,38.67
2022-12-03T19:59:20.854Z,31.83
2022-12-03T20:01:50.567Z,31.23
2022-12-03T20:04:18.951Z,23.20
2022-12-03T20:06:47.531Z,24.90
2022-12-03T20:09:17.950Z,26.30
2022-12-03T20:11:47.001Z,25.03
2022-12-03T20:14:17.482Z,19.93
2022-12-03T20:16:46.458Z,21.57
2022-12-03T20:19:18.553Z,20.80
2022-12-03T20:21:46.910Z,19.93
2022-12-03T20:24:18.237Z,19.87
2022-12-03T20:26:46.541Z,21.50
2022-12-03T20:29:14.835Z,19.87
2022-12-03T20:31:43.221Z,19.10
2022-12-03T20:34:12.543Z,18.60
2022-12-03T20:36:44.139Z,19.97
2022-12-03T20:39:12.763Z,24.43
2022-12-03T20:41:41.327Z,21.10
2022-12-03T20:44:09.963Z,21.13
2022-12-03T20:46:38.271Z,22.10
2022-12-03T20:49:06.629Z,22.50
2022-12-03T20:51:34.945Z,20.90
2022-12-03T20:54:04.912Z,19.27
2022-12-03T20:56:36.124Z,23.27
2022-12-03T20:59:09.121Z,28.13
2022-12-03T21:01:38.472Z,33.83
2022-12-03T21:04:08.495Z,23.23
2022-12-03T21:06:38.559Z,23.90
2022-12-03T21:09:10.195Z,21.07
2022-12-03T21:11:42.216Z,19.10
2022-12-03T21:14:11.914Z,26.63
2022-12-03T21:19:30.861Z,19.43
2022-12-03T21:21:59.147Z,25.50
2022-12-03T21:24:30.358Z,24.13
2022-12-03T21:26:58.679Z,20.60
2022-12-03T21:29:26.942Z,24.97
2022-12-03T21:31:55.182Z,26.60
2022-12-03T21:34:23.459Z,18.33
2022-12-03T21:36:51.689Z,19.53
2022-12-03T21:39:20.204Z,18.93
2022-12-03T21:42:22.259Z,18.03
2022-12-03T21:44:38.402Z,17.93
2022-12-03T21:47:12.136Z,19.47
2022-12-03T21:49:42.933Z,20.77
2022-12-03T21:52:13.524Z,17.27
2022-12-03T21:54:42.221Z,18.43
2022-12-03T21:57:12.004Z,24.60
2022-12-03T21:59:40.295Z,50.90
2022-12-03T22:02:08.617Z,32.77
2022-12-03T22:04:37.034Z,18.80
2022-12-03T22:07:06.626Z,21.10
2022-12-03T22:09:35.022Z,19.33
2022-12-03T22:12:03.270Z,19.60
2022-12-03T22:14:33.000Z,17.30
2022-12-03T22:17:01.623Z,18.00
2022-12-03T22:19:30.181Z,22.43
2022-12-03T22:21:58.455Z,18.63
2022-12-03T22:24:26.733Z,19.90
2022-12-03T22:26:55.114Z,19.53
2022-12-03T22:29:23.793Z,18.37
2022-12-03T22:31:53.455Z,21.13
2022-12-03T22:34:21.784Z,19.63
2022-12-03T22:36:50.038Z,19.53
2022-12-03T22:39:18.321Z,18.90
2022-12-03T22:41:46.661Z,18.13
2022-12-03T22:44:14.973Z,17.60
2022-12-03T22:46:43.376Z,19.53
2022-12-03T22:49:13.833Z,18.23
2022-12-03T22:51:42.311Z,19.90
2022-12-03T22:54:12.000Z,20.30
2022-12-03T22:56:40.504Z,21.43
2022-12-03T22:59:08.876Z,19.80
2022-12-03T23:01:39.765Z,18.17
2022-12-03T23:04:13.056Z,15.30
2022-12-03T23:06:41.399Z,17.33
2022-12-03T23:09:10.071Z,19.80
2022-12-03T23:11:53.763Z,16.83
2022-12-03T23:14:22.066Z,19.40
2022-12-03T23:16:50.358Z,19.67
2022-12-03T23:19:21.013Z,17.70
2022-12-03T23:21:49.358Z,18.10
2022-12-03T23:24:17.658Z,14.83
2022-12-03T23:26:45.909Z,19.17
2022-12-03T23:29:14.226Z,18.07
2022-12-03T23:31:42.667Z,16.50
2022-12-03T23:34:11.224Z,17.70
2022-12-03T23:36:40.938Z,19.00
2022-12-03T23:39:09.253Z,16.70
2022-12-03T23:41:37.539Z,16.40
2022-12-03T23:44:05.839Z,18.53
2022-12-03T23:46:34.178Z,18.83
2022-12-03T23:49:02.453Z,18.10
2022-12-03T23:51:30.692Z,18.10
2022-12-03T23:54:00.292Z,17.60
2022-12-03T23:56:31.269Z,17.97
2022-12-03T23:59:00.164Z,21.43
